createdAt,value
2018-07-26T00:01:00.001Z,100335.45
2018-07-26T00:03:57.340Z,100333.64
2018-07-26T00:06:55.338Z,100330.81
2018-07-26T00:09:53.215Z,100326.92
2018-07-26T00:12:50.988Z,100327.47
2018-07-26T00:15:48.046Z,100325.75
2018-07-26T00:18:45.239Z,100321.98
2018-07-26T00:21:43.206Z,100321.80
2018-07-26T00:24:40.631Z,100327.78
2018-07-26T00:27:37.863Z,100332.48
2018-07-26T00:30:35.802Z,100331.76
2018-07-26T00:33:33.823Z,100330.70
2018-07-26T00:36:31.624Z,100340.37
2018-07-26T00:39:30.702Z,100336.49
2018-07-26T00:42:28.157Z,100340.75
2018-07-26T00:45:25.432Z,100340.30
2018-07-26T00:48:23.469Z,100340.28
2018-07-26T00:51:21.164Z,100338.02
2018-07-26T00:54:18.543Z,100338.51
2018-07-26T00:57:15.617Z,100336.64
2018-07-26T01:00:13.057Z,100334.59
2018-07-26T01:03:10.723Z,100344.31
2018-07-26T01:06:08.164Z,100342.00
2018-07-26T01:09:06.151Z,100340.42
2018-07-26T01:12:04.217Z,100341.86
2018-07-26T01:15:01.351Z,100339.02
2018-07-26T01:17:58.628Z,100342.53
2018-07-26T01:20:55.807Z,100330.18
2018-07-26T01:23:54.102Z,100335.76
2018-07-26T01:26:51.230Z,100327.73
2018-07-26T01:29:48.622Z,100338.57
2018-07-26T01:32:46.239Z,100337.56
2018-07-26T01:35:43.692Z,100334.36
2018-07-26T01:38:41.735Z,100341.38
2018-07-26T01:41:39.751Z,100333.64
2018-07-26T01:44:41.114Z,100335.89
2018-07-26T01:47:39.118Z,100330.75
2018-07-26T01:50:36.754Z,100332.26
2018-07-26T01:53:34.134Z,100325.75
2018-07-26T01:56:31.363Z,100326.80
2018-07-26T01:59:28.507Z,100325.78
2018-07-26T02:02:25.556Z,100325.58
2018-07-26T02:05:22.770Z,100323.01
2018-07-26T02:08:19.783Z,100318.77
2018-07-26T02:11:16.998Z,100323.74
2018-07-26T02:14:18.540Z,100316.83
2018-07-26T02:17:16.331Z,100316.30
2018-07-26T02:20:13.984Z,100314.95
2018-07-26T02:23:11.863Z,100323.00
2018-07-26T02:26:09.700Z,100318.34
2018-07-26T02:29:07.811Z,100314.86
2018-07-26T02:32:05.367Z,100315.63
2018-07-26T02:35:03.348Z,100316.05
2018-07-26T02:38:01.058Z,100320.88
2018-07-26T02:40:58.360Z,100320.89
2018-07-26T02:43:55.917Z,100317.44
2018-07-26T02:46:53.080Z,100329.94
2018-07-26T02:49:51.030Z,100330.61
2018-07-26T02:52:48.604Z,100332.20
2018-07-26T02:58:35.234Z,100334.08
2018-07-26T03:01:33.120Z,100331.83
2018-07-26T03:04:30.876Z,100333.41
2018-07-26T03:07:28.727Z,100333.69
2018-07-26T03:10:26.027Z,100341.47
2018-07-26T03:13:23.567Z,100335.63
2018-07-26T03:16:20.743Z,100339.48
2018-07-26T03:19:18.055Z,100336.26
2018-07-26T03:22:15.368Z,100341.66
2018-07-26T03:25:12.720Z,100343.27
2018-07-26T03:28:10.476Z,100335.57
2018-07-26T03:31:07.666Z,100335.39
2018-07-26T03:34:05.303Z,100335.51
2018-07-26T03:37:03.260Z,100325.84
2018-07-26T03:40:00.935Z,100335.87
2018-07-26T03:42:58.629Z,100336.56
2018-07-26T03:45:56.779Z,100333.35
2018-07-26T03:48:53.860Z,100337.06
2018-07-26T03:51:51.298Z,100336.45
2018-07-26T03:54:48.493Z,100338.34
2018-07-26T03:57:46.559Z,100341.72
2018-07-26T04:00:44.412Z,100335.53
2018-07-26T04:03:42.347Z,100337.84
2018-07-26T04:06:40.415Z,100341.25
2018-07-26T04:09:38.216Z,100335.84
2018-07-26T04:12:35.399Z,100340.84
2018-07-26T04:15:32.459Z,100336.11
2018-07-26T04:18:29.912Z,100337.77
2018-07-26T04:21:27.975Z,100335.78
2018-07-26T04:24:26.088Z,100339.51
2018-07-26T04:27:24.244Z,100340.67
2018-07-26T04:30:21.447Z,100339.42
2018-07-26T04:33:19.059Z,100342.95
2018-07-26T04:36:16.306Z,100350.92
2018-07-26T04:39:13.179Z,100343.86
2018-07-26T04:42:11.168Z,100341.03
2018-07-26T04:45:08.514Z,100344.38
2018-07-26T04:48:06.611Z,100348.72
2018-07-26T04:51:03.945Z,100348.53
2018-07-26T04:54:01.216Z,100348.02
2018-07-26T04:56:59.139Z,100350.91
2018-07-26T04:59:56.651Z,100352.83
2018-07-26T05:02:54.412Z,100351.42
2018-07-26T05:05:52.384Z,100354.50
2018-07-26T05:08:50.043Z,100354.21
2018-07-26T05:11:47.893Z,100364.69
2018-07-26T05:14:45.115Z,100362.78
2018-07-26T05:17:42.204Z,100363.28
2018-07-26T05:20:39.486Z,100366.13
2018-07-26T05:23:37.392Z,100357.46
2018-07-26T05:26:34.855Z,100367.08
2018-07-26T05:29:32.403Z,100365.75
2018-07-26T05:32:30.392Z,100370.70
2018-07-26T05:35:27.488Z,100361.31
2018-07-26T05:38:24.700Z,100354.79
2018-07-26T05:41:21.804Z,100364.59
2018-07-26T05:44:19.095Z,100368.59
2018-07-26T05:47:16.564Z,100375.77
2018-07-26T05:50:15.529Z,100375.66
2018-07-26T05:53:13.723Z,100379.27
2018-07-26T05:56:11.683Z,100380.52
2018-07-26T05:59:09.348Z,100391.06
2018-07-26T06:02:06.543Z,100398.92
2018-07-26T06:05:04.258Z,100403.12
2018-07-26T06:08:01.593Z,100407.41
2018-07-26T06:10:58.730Z,100403.08
2018-07-26T06:13:55.660Z,100409.73
2018-07-26T06:16:53.508Z,100401.80
2018-07-26T06:19:50.905Z,100403.18
2018-07-26T06:22:48.183Z,100389.41
2018-07-26T06:25:45.406Z,100393.17
2018-07-26T06:28:42.963Z,100397.30
2018-07-26T06:31:40.848Z,100390.93
2018-07-26T06:34:38.796Z,100396.75
2018-07-26T06:37:36.279Z,100405.48
2018-07-26T06:40:36.066Z,100404.01
2018-07-26T06:43:36.100Z,100401.61
2018-07-26T06:46:33.208Z,100406.30
2018-07-26T06:49:30.749Z,100399.23
2018-07-26T06:52:28.378Z,100398.10
2018-07-26T06:55:26.302Z,100400.59
2018-07-26T06:58:23.431Z,100401.83
2018-07-26T07:01:21.512Z,100399.77
2018-07-26T07:04:19.393Z,100401.94
2018-07-26T07:07:17.349Z,100392.35
2018-07-26T07:10:15.362Z,100395.44
2018-07-26T07:13:12.659Z,100394.13
2018-07-26T07:16:09.728Z,100394.41
2018-07-26T07:19:07.291Z,100393.84
2018-07-26T07:22:04.556Z,100387.59
2018-07-26T07:25:02.504Z,100394.25
2018-07-26T07:27:59.524Z,100394.28
2018-07-26T07:30:57.337Z,100399.79
2018-07-26T07:33:54.408Z,100398.69
2018-07-26T07:36:52.040Z,100400.78
2018-07-26T07:39:50.075Z,100395.95
2018-07-26T07:42:48.097Z,100394.20
2018-07-26T07:45:45.735Z,100394.00
2018-07-26T07:48:42.732Z,100394.95
2018-07-26T07:51:40.207Z,100395.47
2018-07-26T07:54:37.320Z,100400.00
2018-07-26T07:57:34.507Z,100394.91
2018-07-26T08:00:32.768Z,100394.95
2018-07-26T08:03:29.899Z,100401.16
2018-07-26T08:06:28.035Z,100394.31
2018-07-26T08:09:25.160Z,100398.01
2018-07-26T08:12:22.439Z,100402.12
2018-07-26T08:15:20.649Z,100394.53
2018-07-26T08:18:17.710Z,100391.82
2018-07-26T08:21:15.837Z,100388.45
2018-07-26T08:24:13.643Z,100392.29
2018-07-26T08:27:11.108Z,100393.67
2018-07-26T08:30:08.267Z,100395.39
2018-07-26T08:33:05.324Z,100388.52
2018-07-26T08:36:02.641Z,100392.76
2018-07-26T08:39:00.180Z,100399.31
2018-07-26T08:41:58.165Z,100382.64
2018-07-26T08:44:55.168Z,100389.92
2018-07-26T08:47:52.420Z,100385.39
2018-07-26T08:50:49.461Z,100385.05
2018-07-26T08:53:47.339Z,100389.94
2018-07-26T08:56:44.662Z,100387.37
2018-07-26T08:59:42.049Z,100387.59
2018-07-26T09:02:40.063Z,100380.34
2018-07-26T09:05:37.261Z,100384.92
2018-07-26T09:08:34.920Z,100382.79
2018-07-26T09:11:32.162Z,100380.98
2018-07-26T09:14:29.337Z,100381.36
2018-07-26T09:17:26.431Z,100383.26
2018-07-26T09:20:23.682Z,100392.27
2018-07-26T09:23:21.167Z,100386.33
2018-07-26T09:26:18.293Z,100372.87
2018-07-26T09:29:15.416Z,100387.93
2018-07-26T09:32:12.590Z,100381.70
2018-07-26T09:35:10.381Z,100378.45
2018-07-26T09:38:07.533Z,100374.53
2018-07-26T09:41:04.582Z,100372.98
2018-07-26T09:44:01.630Z,100370.23
2018-07-26T09:46:58.944Z,100372.84
2018-07-26T09:49:56.078Z,100373.27
2018-07-26T09:52:53.523Z,100368.22
2018-07-26T09:55:50.872Z,100368.78
2018-07-26T09:58:48.635Z,100360.89
2018-07-26T10:01:46.644Z,100352.61
2018-07-26T10:04:44.733Z,100360.97
2018-07-26T10:07:42.014Z,100359.95
2018-07-26T10:10:39.064Z,100364.05
2018-07-26T10:13:36.446Z,100371.31
2018-07-26T10:16:33.675Z,100356.78
2018-07-26T10:19:30.918Z,100356.05
2018-07-26T10:22:28.696Z,100356.38
2018-07-26T10:25:26.760Z,100351.50
2018-07-26T10:28:24.096Z,100346.27
2018-07-26T10:31:21.184Z,100354.34
2018-07-26T10:34:18.428Z,100346.13
2018-07-26T10:37:15.612Z,100350.84
2018-07-26T10:40:12.749Z,100343.80
2018-07-26T10:43:10.023Z,100353.88
2018-07-26T10:46:07.184Z,100348.84
2018-07-26T10:49:04.376Z,100337.14
2018-07-26T10:52:01.490Z,100333.13
2018-07-26T10:54:59.453Z,100330.68
2018-07-26T10:57:57.560Z,100319.04
2018-07-26T11:00:54.727Z,100336.23
2018-07-26T11:03:51.883Z,100329.11
2018-07-26T11:06:49.992Z,100327.67
2018-07-26T11:09:47.391Z,100327.06
2018-07-26T11:12:45.401Z,100337.04
2018-07-26T11:15:45.676Z,100314.77
2018-07-26T11:18:42.953Z,100333.11
2018-07-26T11:21:40.503Z,100315.48
2018-07-26T11:24:37.893Z,100317.72
2018-07-26T11:27:35.424Z,100328.75
2018-07-26T11:30:33.174Z,100317.63
2018-07-26T11:33:30.651Z,100315.48
2018-07-26T11:36:28.040Z,100317.34
2018-07-26T11:39:25.353Z,100321.16
2018-07-26T11:42:23.325Z,100327.27
2018-07-26T11:45:20.462Z,100310.58
2018-07-26T11:48:17.644Z,100318.50
2018-07-26T11:51:14.908Z,100307.48
2018-07-26T11:54:12.191Z,100290.03
2018-07-26T11:57:09.292Z,100311.77
2018-07-26T12:00:06.937Z,100292.55
2018-07-26T12:03:04.459Z,100292.30
2018-07-26T12:06:01.718Z,100290.55
2018-07-26T12:08:59.080Z,100299.88
2018-07-26T12:11:56.616Z,100286.85
2018-07-26T12:14:54.350Z,100301.39
2018-07-26T12:17:51.458Z,100293.86
2018-07-26T12:20:48.633Z,100301.35
2018-07-26T12:23:45.850Z,100297.42
2018-07-26T12:26:42.967Z,100287.80
2018-07-26T12:29:40.809Z,100289.41
2018-07-26T12:32:37.939Z,100279.70
2018-07-26T12:35:35.960Z,100257.96
2018-07-26T12:38:33.039Z,100275.89
2018-07-26T12:41:30.513Z,100273.08
2018-07-26T12:44:28.331Z,100274.17
2018-07-26T12:47:26.323Z,100267.66
2018-07-26T12:50:24.142Z,100275.50
2018-07-26T12:53:22.323Z,100265.33
2018-07-26T12:56:20.356Z,100244.37
2018-07-26T12:59:18.517Z,100249.48
2018-07-26T13:02:15.845Z,100247.54
2018-07-26T13:05:13.027Z,100252.58
2018-07-26T13:08:10.897Z,100255.83
2018-07-26T13:11:09.051Z,100253.78
2018-07-26T13:14:06.684Z,100250.73
2018-07-26T13:17:03.996Z,100245.31
2018-07-26T13:20:01.172Z,100255.90
2018-07-26T13:22:58.352Z,100258.71
2018-07-26T13:25:55.650Z,100248.98
2018-07-26T13:28:53.743Z,100243.73
2018-07-26T13:31:51.203Z,100254.77
2018-07-26T13:34:48.893Z,100238.09
2018-07-26T13:37:46.415Z,100246.87
2018-07-26T13:40:43.665Z,100243.17
2018-07-26T13:43:40.997Z,100249.89
2018-07-26T13:46:39.112Z,100243.98
2018-07-26T13:49:36.393Z,100234.55
2018-07-26T13:52:42.451Z,100240.23
2018-07-26T13:55:39.787Z,100229.88
2018-07-26T13:58:36.932Z,100218.84
2018-07-26T14:01:34.131Z,100217.59
2018-07-26T14:04:31.396Z,100233.25
2018-07-26T14:07:28.619Z,100210.24
2018-07-26T14:10:25.560Z,100220.72
2018-07-26T14:13:23.735Z,100219.62
2018-07-26T14:16:20.869Z,100208.62
2018-07-26T14:19:18.071Z,100226.09
2018-07-26T14:22:16.213Z,100208.72
2018-07-26T14:25:13.900Z,100208.39
2018-07-26T14:28:10.993Z,100214.69
2018-07-26T14:31:08.171Z,100208.30
2018-07-26T14:34:05.279Z,100204.41
2018-07-26T14:37:02.696Z,100221.72
2018-07-26T14:40:00.722Z,100205.16
2018-07-26T14:42:58.291Z,100201.23
2018-07-26T14:45:55.647Z,100215.80
2018-07-26T14:48:52.936Z,100193.78
2018-07-26T14:51:50.226Z,100195.82
2018-07-26T14:54:48.159Z,100207.92
2018-07-26T14:57:45.591Z,100200.64
2018-07-26T15:00:43.672Z,100189.66
2018-07-26T15:03:40.691Z,100183.61
2018-07-26T15:06:38.023Z,100194.45
2018-07-26T15:09:35.864Z,100185.39
2018-07-26T15:12:32.976Z,100194.63
2018-07-26T15:15:30.053Z,100177.58
2018-07-26T15:18:27.306Z,100187.42
2018-07-26T15:21:24.570Z,100190.75
2018-07-26T15:24:21.825Z,100186.63
2018-07-26T15:27:19.856Z,100179.63
2018-07-26T15:30:17.042Z,100192.84
2018-07-26T15:33:14.229Z,100186.64
2018-07-26T15:36:11.756Z,100188.45
2018-07-26T15:39:09.065Z,100185.92
2018-07-26T15:42:06.815Z,100165.41
2018-07-26T15:45:03.848Z,100176.00
2018-07-26T15:48:01.001Z,100179.02
2018-07-26T15:50:58.281Z,100177.74
2018-07-26T15:53:56.031Z,100187.90
2018-07-26T15:56:53.897Z,100180.76
2018-07-26T15:59:51.114Z,100172.86
2018-07-26T16:02:48.836Z,100181.24
2018-07-26T16:05:46.067Z,100177.19
2018-07-26T16:08:43.204Z,100184.36
2018-07-26T16:11:41.115Z,100184.09
2018-07-26T16:14:39.127Z,100174.25
2018-07-26T16:17:36.941Z,100166.63
2018-07-26T16:20:34.052Z,100175.64
2018-07-26T16:23:31.322Z,100173.18
2018-07-26T16:26:29.567Z,100168.81
2018-07-26T16:29:27.676Z,100181.91
2018-07-26T16:32:25.826Z,100178.38
2018-07-26T16:35:23.076Z,100178.72
2018-07-26T16:38:20.226Z,100170.23
2018-07-26T16:41:17.472Z,100172.36
2018-07-26T16:44:15.443Z,100172.94
2018-07-26T16:47:12.949Z,100167.28
2018-07-26T16:50:10.386Z,100171.66
2018-07-26T16:53:08.487Z,100172.52
2018-07-26T16:56:06.045Z,100169.86
2018-07-26T16:59:03.935Z,100172.33
2018-07-26T17:02:01.417Z,100183.55
2018-07-26T17:04:58.603Z,100171.85
2018-07-26T17:07:58.655Z,100176.46
2018-07-26T17:10:56.491Z,100169.67
2018-07-26T17:13:54.012Z,100168.60
2018-07-26T17:16:52.144Z,100166.95
2018-07-26T17:19:49.310Z,100166.70
2018-07-26T17:22:46.905Z,100175.70
2018-07-26T17:25:44.671Z,100172.17
2018-07-26T17:28:41.950Z,100168.66
2018-07-26T17:31:39.147Z,100161.30
2018-07-26T17:34:36.956Z,100167.60
2018-07-26T17:37:34.660Z,100175.50
2018-07-26T17:40:32.570Z,100177.17
2018-07-26T17:43:29.595Z,100181.02
2018-07-26T17:46:27.098Z,100177.75
2018-07-26T17:49:24.250Z,100181.84
2018-07-26T17:52:22.125Z,100180.72
2018-07-26T17:55:20.395Z,100181.56
2018-07-26T17:58:18.351Z,100182.38
2018-07-26T18:01:15.436Z,100188.12
2018-07-26T18:04:12.915Z,100186.77
2018-07-26T18:07:10.642Z,100191.92
2018-07-26T18:10:07.900Z,100189.50
2018-07-26T18:13:05.582Z,100194.94
2018-07-26T18:16:03.364Z,100192.77
2018-07-26T18:19:00.912Z,100186.22
2018-07-26T18:21:58.504Z,100189.75
2018-07-26T18:24:55.940Z,100197.89
2018-07-26T18:27:53.529Z,100197.38
2018-07-26T18:30:51.166Z,100204.42
2018-07-26T18:33:48.728Z,100213.10
2018-07-26T18:36:46.005Z,100210.92
2018-07-26T18:39:43.965Z,100208.16
2018-07-26T18:42:41.307Z,100209.77
2018-07-26T18:45:38.792Z,100218.45
2018-07-26T18:48:36.764Z,100216.25
2018-07-26T18:51:34.679Z,100216.49
2018-07-26T18:54:32.615Z,100219.97
2018-07-26T18:57:30.697Z,100217.73
2018-07-26T19:00:29.291Z,100225.30
2018-07-26T19:03:27.228Z,100226.59
2018-07-26T19:06:24.717Z,100230.61
2018-07-26T19:09:23.005Z,100236.25
2018-07-26T19:12:20.655Z,100240.23
2018-07-26T19:15:19.060Z,100236.86
2018-07-26T19:18:16.827Z,100241.89
2018-07-26T19:21:14.688Z,100245.65
2018-07-26T19:24:12.082Z,100243.14
2018-07-26T19:27:09.251Z,100249.57
2018-07-26T19:30:07.007Z,100246.00
2018-07-26T19:33:04.336Z,100251.61
2018-07-26T19:36:02.152Z,100258.52
2018-07-26T19:38:59.146Z,100255.93
2018-07-26T19:41:56.909Z,100263.13
2018-07-26T19:44:54.904Z,100265.16
2018-07-26T19:47:51.948Z,100265.53
2018-07-26T19:50:49.113Z,100261.99
2018-07-26T19:53:46.406Z,100267.17
2018-07-26T19:56:44.541Z,100265.55
2018-07-26T19:59:42.552Z,100272.00
2018-07-26T20:02:40.432Z,100279.53
2018-07-26T20:05:37.847Z,100281.83
2018-07-26T20:08:35.817Z,100280.20
2018-07-26T20:11:33.870Z,100279.28
2018-07-26T20:14:30.866Z,100281.70
2018-07-26T20:17:27.787Z,100286.18
2018-07-26T20:20:25.449Z,100291.40
2018-07-26T20:23:23.042Z,100289.61
2018-07-26T20:26:20.370Z,100286.66
2018-07-26T20:29:17.858Z,100285.59
2018-07-26T20:32:15.380Z,100284.30
2018-07-26T20:35:13.087Z,100281.02
2018-07-26T20:38:10.615Z,100289.44
2018-07-26T20:41:08.199Z,100284.58
2018-07-26T20:44:06.194Z,100292.10
2018-07-26T20:47:03.779Z,100295.62
2018-07-26T20:50:01.304Z,100298.92
2018-07-26T20:52:59.038Z,100301.86
2018-07-26T20:55:56.808Z,100298.92
2018-07-26T20:58:54.413Z,100298.63
2018-07-26T21:01:52.594Z,100300.44
2018-07-26T21:04:50.755Z,100293.45
2018-07-26T21:07:47.912Z,100303.39
2018-07-26T21:10:45.860Z,100309.41
2018-07-26T21:13:43.871Z,100308.11
2018-07-26T21:16:40.816Z,100302.20
2018-07-26T21:19:38.688Z,100296.61
2018-07-26T21:22:36.706Z,100301.42
2018-07-26T21:25:34.304Z,100310.22
2018-07-26T21:28:32.315Z,100304.49
2018-07-26T21:31:29.475Z,100309.50
2018-07-26T21:34:27.422Z,100305.80
2018-07-26T21:37:24.500Z,100304.19
2018-07-26T21:40:22.268Z,100307.44
2018-07-26T21:43:20.081Z,100305.02
2018-07-26T21:46:17.219Z,100308.86
2018-07-26T21:49:14.406Z,100307.22
2018-07-26T21:52:11.743Z,100309.47
2018-07-26T21:55:09.283Z,100311.44
2018-07-26T21:58:07.167Z,100315.08
2018-07-26T22:01:05.872Z,100318.86
2018-07-26T22:04:03.463Z,100312.43
2018-07-26T22:07:00.553Z,100309.98
2018-07-26T22:09:57.720Z,100319.89
2018-07-26T22:12:55.496Z,100323.15
2018-07-26T22:15:53.434Z,100322.05
2018-07-26T22:18:51.429Z,100316.73
2018-07-26T22:21:48.531Z,100316.37
2018-07-26T22:24:46.618Z,100312.45
2018-07-26T22:27:44.588Z,100322.79
2018-07-26T22:30:41.486Z,100321.00
2018-07-26T22:33:39.450Z,100326.13
2018-07-26T22:36:36.496Z,100326.36
2018-07-26T22:39:34.435Z,100336.19
2018-07-26T22:42:31.431Z,100334.64
2018-07-26T22:45:29.332Z,100332.80
2018-07-26T22:48:27.213Z,100335.80
2018-07-26T22:51:24.960Z,100334.88
2018-07-26T22:54:22.294Z,100329.92
2018-07-26T22:57:19.367Z,100322.48
2018-07-26T23:00:16.904Z,100326.09
2018-07-26T23:03:14.567Z,100327.73
2018-07-26T23:06:11.803Z,100337.44
2018-07-26T23:09:08.817Z,100338.27
2018-07-26T23:12:06.379Z,100338.98
2018-07-26T23:15:03.920Z,100340.86
2018-07-26T23:18:01.257Z,100341.36
2018-07-26T23:20:58.734Z,100339.72
2018-07-26T23:23:56.411Z,100339.83
2018-07-26T23:26:53.320Z,100339.17
2018-07-26T23:29:51.238Z,100338.66
2018-07-26T23:32:48.474Z,100339.20
2018-07-26T23:35:46.555Z,100336.84
2018-07-26T23:38:43.771Z,100341.03
2018-07-26T23:41:41.819Z,100334.58
2018-07-26T23:44:39.687Z,100339.61
2018-07-26T23:47:36.934Z,100338.74
2018-07-26T23:50:35.020Z,100337.30
2018-07-26T23:53:32.164Z,100332.80
2018-07-26T23:56:30.288Z,100333.88
2018-07-26T23:59:27.891Z,100335.36
